Time;durP1;ratioP1;P1;durP2;ratioP2;P2;SDS_P1;SDS_P2;PMS_P1;PMS_P2;Temp;Humidity;BMP_temperature;BMP_pressure;BME280_temperature;BME280_humidity;BME280_pressure;Samples;Min_cycle;Max_cycle;Signal;HPM_P1;HPM_P2
2023/12/06 00:01:25;;;;;;;73.03;26.67;;;;;;;;;;5071752;28;20295;-92
2023/12/06 00:04:01;;;;;;;73.68;28.05;;;;;;;;;;5073472;28;20031;-92
2023/12/06 00:06:26;;;;;;;78.97;28.33;;;;;;;;;;5072366;28;20052;-92
2023/12/06 00:08:52;;;;;;;78.87;28.13;;;;;;;;;;5072800;28;20518;-92
2023/12/06 00:11:21;;;;;;;77.82;27.65;;;;;;;;;;5055537;28;20052;-92
2023/12/06 00:13:46;;;;;;;78.60;27.37;;;;;;;;;;5078575;28;20000;-92
2023/12/06 00:16:11;;;;;;;71.97;26.67;;;;;;;;;;5089508;28;20024;-91
2023/12/06 00:18:36;;;;;;;73.80;28.23;;;;;;;;;;5072664;28;20020;-92
2023/12/06 00:21:07;;;;;;;73.60;28.17;;;;;;;;;;5036875;28;20419;-91
2023/12/06 00:23:33;;;;;;;84.00;28.07;;;;;;;;;;5054175;28;20051;-91
2023/12/06 00:25:59;;;;;;;86.15;29.08;;;;;;;;;;5036029;28;20096;-92
2023/12/06 00:28:24;;;;;;;81.53;28.83;;;;;;;;;;5034141;28;20373;-92
2023/12/06 00:30:53;;;;;;;76.50;28.60;;;;;;;;;;5054196;28;20104;-92
2023/12/06 00:33:19;;;;;;;82.33;28.13;;;;;;;;;;5037755;28;20056;-91
2023/12/06 00:35:44;;;;;;;83.10;29.23;;;;;;;;;;5067234;28;20114;-92
2023/12/06 00:38:10;;;;;;;80.13;28.97;;;;;;;;;;5053076;28;20279;-93
2023/12/06 00:40:41;;;;;;;77.20;26.67;;;;;;;;;;5052201;28;20035;-91
2023/12/06 00:43:06;;;;;;;84.45;28.20;;;;;;;;;;5035432;28;20055;-93
2023/12/06 00:45:31;;;;;;;80.13;27.57;;;;;;;;;;5054012;28;20093;-95
2023/12/06 00:47:56;;;;;;;77.97;26.53;;;;;;;;;;5070717;28;20028;-94
2023/12/06 00:50:32;;;;;;;76.33;27.17;;;;;;;;;;5052287;28;20024;-91
2023/12/06 00:52:58;;;;;;;75.88;27.27;;;;;;;;;;5054282;28;20484;-93
2023/12/06 00:55:26;;;;;;;77.28;27.60;;;;;;;;;;5071733;28;20172;-93
2023/12/06 00:57:52;;;;;;;81.43;28.67;;;;;;;;;;5058602;22;20076;-95
2023/12/06 01:00:27;;;;;;;77.70;28.27;;;;;;;;;;5049355;28;20045;-95
2023/12/06 01:02:52;;;;;;;84.70;27.77;;;;;;;;;;5032711;28;20116;-95
2023/12/06 01:05:18;;;;;;;84.63;28.45;;;;;;;;;;5033736;28;20580;-95
2023/12/06 01:07:43;;;;;;;79.97;27.70;;;;;;;;;;5032108;28;20040;-94
2023/12/06 01:10:09;;;;;;;84.80;27.57;;;;;;;;;;5048968;28;20027;-93
2023/12/06 01:12:35;;;;;;;81.23;27.23;;;;;;;;;;5052644;28;20013;-94
2023/12/06 01:15:04;;;;;;;80.13;27.87;;;;;;;;;;5038471;28;20387;-93
2023/12/06 01:17:32;;;;;;;77.15;26.58;;;;;;;;;;5077171;23;20055;-92
2023/12/06 01:20:09;;;;;;;75.05;26.98;;;;;;;;;;5049978;28;20023;-92
2023/12/06 01:22:37;;;;;;;73.13;25.98;;;;;;;;;;5056009;28;20036;-96
2023/12/06 01:25:02;;;;;;;76.25;26.63;;;;;;;;;;5056622;28;20021;-93
2023/12/06 01:27:35;;;;;;;74.97;27.77;;;;;;;;;;5054474;28;20388;-93
2023/12/06 01:30:09;;;;;;;69.25;25.58;;;;;;;;;;5034036;28;20382;-93
2023/12/06 01:32:35;;;;;;;75.87;27.37;;;;;;;;;;5013312;28;20027;-92
2023/12/06 01:35:00;;;;;;;70.37;25.73;;;;;;;;;;5032713;28;20275;-94
2023/12/06 01:37:28;;;;;;;79.50;27.90;;;;;;;;;;5066610;22;20475;-95
2023/12/06 01:39:53;;;;;;;65.80;25.17;;;;;;;;;;5037906;28;20041;-94
2023/12/06 01:42:18;;;;;;;68.00;26.00;;;;;;;;;;5052537;28;20036;-94
2023/12/06 01:44:43;;;;;;;67.80;23.87;;;;;;;;;;5034097;28;20066;-94
2023/12/06 01:47:09;;;;;;;66.90;24.13;;;;;;;;;;5056164;28;20021;-94
2023/12/06 01:49:35;;;;;;;71.65;25.65;;;;;;;;;;5030780;28;20017;-94
2023/12/06 01:52:00;;;;;;;64.63;24.93;;;;;;;;;;5052405;28;20092;-95
2023/12/06 01:54:28;;;;;;;67.83;25.70;;;;;;;;;;5052134;28;20057;-95
2023/12/06 01:56:55;;;;;;;63.30;25.27;;;;;;;;;;5052567;28;20025;-95
2023/12/06 01:59:20;;;;;;;70.70;24.70;;;;;;;;;;5051968;28;20025;-93
2023/12/06 02:01:47;;;;;;;65.60;24.73;;;;;;;;;;5052153;28;20063;-94
2023/12/06 02:04:13;;;;;;;62.00;23.77;;;;;;;;;;5051935;28;20013;-94
2023/12/06 02:07:15;;;;;;;65.03;24.58;;;;;;;;;;5053300;28;20483;-94
2023/12/06 02:09:40;;;;;;;57.20;23.42;;;;;;;;;;5063709;28;20024;-94
2023/12/06 02:12:06;;;;;;;57.90;24.43;;;;;;;;;;5051365;28;20044;-94
2023/12/06 02:14:43;;;;;;;53.17;21.10;;;;;;;;;;5041048;28;20067;-94
2023/12/06 02:17:20;;;;;;;56.60;23.42;;;;;;;;;;5053843;28;20017;-93
2023/12/06 02:20:04;;;;;;;53.90;22.80;;;;;;;;;;5043611;28;20880;-95
2023/12/06 02:22:29;;;;;;;56.83;21.98;;;;;;;;;;5032015;28;20057;-94
2023/12/06 02:25:05;;;;;;;60.20;23.20;;;;;;;;;;5042189;28;20457;-94
2023/12/06 02:27:33;;;;;;;57.10;23.67;;;;;;;;;;5051198;28;20010;-95
2023/12/06 02:30:08;;;;;;;52.90;23.13;;;;;;;;;;5051774;28;20028;-94
2023/12/06 02:32:47;;;;;;;57.43;23.00;;;;;;;;;;5052446;28;20275;-95
2023/12/06 02:35:54;;;;;;;51.28;22.48;;;;;;;;;;5039878;28;20045;-95
2023/12/06 02:38:20;;;;;;;53.35;21.85;;;;;;;;;;4974421;28;20479;-95
2023/12/06 02:40:45;;;;;;;54.13;22.43;;;;;;;;;;4974621;28;20034;-94
2023/12/06 02:43:11;;;;;;;53.83;22.90;;;;;;;;;;4981447;28;20046;-94
2023/12/06 02:45:42;;;;;;;50.40;21.70;;;;;;;;;;4994815;28;20105;-94
2023/12/06 02:48:09;;;;;;;54.37;21.23;;;;;;;;;;5020209;28;20334;-94
2023/12/06 02:50:35;;;;;;;50.92;21.63;;;;;;;;;;5055060;28;20029;-94
2023/12/06 02:53:04;;;;;;;47.03;21.93;;;;;;;;;;5056094;28;20365;-95
2023/12/06 02:55:35;;;;;;;54.03;21.80;;;;;;;;;;5047347;28;20016;-94
2023/12/06 02:58:15;;;;;;;57.33;23.10;;;;;;;;;;5036500;28;20067;-95
2023/12/06 03:00:43;;;;;;;51.75;21.70;;;;;;;;;;5046307;28;20032;-94
2023/12/06 03:03:21;;;;;;;45.55;21.13;;;;;;;;;;5057230;28;20013;-94
2023/12/06 03:05:56;;;;;;;54.73;21.97;;;;;;;;;;5052911;28;20063;-95
2023/12/06 03:08:48;;;;;;;50.00;21.20;;;;;;;;;;5089343;22;20044;-94
2023/12/06 03:11:22;;;;;;;51.90;21.20;;;;;;;;;;5076508;28;20016;-95
2023/12/06 03:13:55;;;;;;;50.50;20.90;;;;;;;;;;5078227;28;20460;-92
2023/12/06 03:16:33;;;;;;;49.22;21.17;;;;;;;;;;5083064;22;20021;-93
2023/12/06 03:19:14;;;;;;;;;;;;;;;;;;;;;
2023/12/06 03:21:43;;;;;;;48.50;20.50;;;;;;;;;;4994115;28;20048;-93
2023/12/06 03:24:08;;;;;;;46.13;20.80;;;;;;;;;;5053689;28;20013;-94
2023/12/06 03:26:56;;;;;;;51.03;20.17;;;;;;;;;;5035823;28;20083;-94
2023/12/06 03:29:21;;;;;;;40.97;19.55;;;;;;;;;;5035622;28;20024;-93
2023/12/06 03:31:53;;;;;;;47.87;20.67;;;;;;;;;;5034850;28;20100;-93
2023/12/06 03:34:29;;;;;;;48.30;20.83;;;;;;;;;;5017611;28;20035;-94
2023/12/06 03:36:58;;;;;;;46.50;20.17;;;;;;;;;;5036365;28;20026;-93
2023/12/06 03:39:49;;;;;;;43.17;20.75;;;;;;;;;;5037531;28;20486;-93
2023/12/06 03:42:21;;;;;;;44.60;19.33;;;;;;;;;;5021940;28;20034;-94
2023/12/06 03:44:47;;;;;;;48.07;22.10;;;;;;;;;;5022994;28;20288;-93
2023/12/06 03:47:31;;;;;;;47.90;19.88;;;;;;;;;;5035714;28;20022;-94
2023/12/06 03:50:21;;;;;;;45.35;20.90;;;;;;;;;;5035637;28;20088;-94
2023/12/06 03:53:08;;;;;;;44.85;19.63;;;;;;;;;;5036590;28;20021;-93
2023/12/06 03:55:46;;;;;;;46.22;20.88;;;;;;;;;;5022322;28;20065;-93
2023/12/06 03:58:31;;;;;;;45.67;20.27;;;;;;;;;;5016042;28;20029;-93
2023/12/06 04:00:59;;;;;;;46.17;20.15;;;;;;;;;;5015889;28;20109;-94
2023/12/06 04:06:53;;;;;;;42.25;19.75;;;;;;;;;;5053101;28;20035;-92
2023/12/06 04:09:44;;;;;;;41.05;19.65;;;;;;;;;;5016954;28;20030;-94
2023/12/06 04:12:34;;;;;;;46.60;19.57;;;;;;;;;;5031658;28;20097;-93
2023/12/06 04:15:00;;;;;;;48.63;20.00;;;;;;;;;;5038586;28;20025;-93
2023/12/06 04:17:34;;;;;;;47.20;21.00;;;;;;;;;;5044444;28;20068;-93
2023/12/06 04:20:00;;;;;;;39.00;19.30;;;;;;;;;;5032660;28;20096;-93
2023/12/06 04:22:35;;;;;;;39.88;20.13;;;;;;;;;;5015617;28;20065;-93
2023/12/06 04:25:01;;;;;;;41.53;19.65;;;;;;;;;;5025471;28;20018;-94
2023/12/06 04:27:26;;;;;;;46.00;20.63;;;;;;;;;;5013347;28;20033;-93
2023/12/06 04:29:51;;;;;;;44.20;20.00;;;;;;;;;;5012961;28;20032;-94
2023/12/06 04:32:29;;;;;;;46.47;20.30;;;;;;;;;;5012650;28;20074;-93
2023/12/06 04:35:05;;;;;;;41.25;20.23;;;;;;;;;;5019899;28;20044;-92
2023/12/06 04:37:30;;;;;;;41.53;18.27;;;;;;;;;;5079222;22;20046;-92
2023/12/06 04:39:58;;;;;;;48.17;21.10;;;;;;;;;;5072032;28;20020;-93
2023/12/06 04:42:27;;;;;;;44.78;20.80;;;;;;;;;;5072277;28;20029;-92
2023/12/06 04:44:58;;;;;;;41.72;20.95;;;;;;;;;;5065116;28;20100;-93
2023/12/06 04:47:29;;;;;;;44.37;20.53;;;;;;;;;;5087486;22;20047;-93
2023/12/06 04:50:00;;;;;;;42.10;19.77;;;;;;;;;;5092521;28;20304;-93
2023/12/06 04:52:34;;;;;;;39.75;19.33;;;;;;;;;;5072706;28;20020;-93
2023/12/06 04:55:04;;;;;;;42.47;19.05;;;;;;;;;;5072148;28;20096;-93
2023/12/06 04:57:35;;;;;;;44.42;21.10;;;;;;;;;;5059100;28;20094;-93
2023/12/06 05:00:08;;;;;;;46.47;20.15;;;;;;;;;;5051661;28;20009;-92
2023/12/06 05:02:39;;;;;;;45.50;21.07;;;;;;;;;;5057107;28;20033;-92
2023/12/06 05:05:05;;;;;;;45.83;19.15;;;;;;;;;;5051965;28;20033;-92
2023/12/06 05:07:30;;;;;;;47.27;21.00;;;;;;;;;;5051632;28;20021;-92
2023/12/06 05:10:08;;;;;;;47.25;20.30;;;;;;;;;;5051992;28;20017;-92
2023/12/06 05:12:36;;;;;;;46.87;20.03;;;;;;;;;;5052112;28;20020;-93
2023/12/06 05:15:01;;;;;;;48.92;19.40;;;;;;;;;;5052188;28;20070;-93
2023/12/06 05:17:33;;;;;;;46.67;20.67;;;;;;;;;;5051531;28;20036;-94
2023/12/06 05:20:03;;;;;;;46.35;20.10;;;;;;;;;;5051346;28;20469;-92
2023/12/06 05:22:30;;;;;;;51.67;21.10;;;;;;;;;;5059781;28;20039;-93
2023/12/06 05:24:56;;;;;;;44.58;19.67;;;;;;;;;;5055811;28;20028;-93
2023/12/06 05:27:21;;;;;;;44.53;20.93;;;;;;;;;;5052038;28;20029;-93
2023/12/06 05:29:57;;;;;;;50.33;20.60;;;;;;;;;;5071736;28;20024;-93
2023/12/06 05:32:28;;;;;;;45.88;21.08;;;;;;;;;;5071752;28;20048;-93
2023/12/06 05:35:10;;;;;;;44.75;20.60;;;;;;;;;;5066095;28;20028;-93
2023/12/06 05:37:44;;;;;;;49.05;20.73;;;;;;;;;;5051428;28;20027;-93
2023/12/06 05:40:21;;;;;;;52.83;21.50;;;;;;;;;;5051670;28;20028;-93
2023/12/06 05:42:55;;;;;;;47.60;20.60;;;;;;;;;;5069415;28;20322;-93
2023/12/06 05:45:21;;;;;;;49.78;21.63;;;;;;;;;;5062841;28;20035;-93
2023/12/06 05:48:11;;;;;;;48.50;22.13;;;;;;;;;;5051824;28;20028;-93
2023/12/06 05:50:46;;;;;;;42.67;19.73;;;;;;;;;;5052564;28;20036;-93
2023/12/06 05:58:48;;;;;;;54.30;22.17;;;;;;;;;;5059379;22;20058;-93
2023/12/06 06:01:25;;;;;;;51.70;21.25;;;;;;;;;;5041254;28;20033;-93
2023/12/06 06:03:58;;;;;;;50.95;21.98;;;;;;;;;;5048764;28;20025;-92
2023/12/06 06:06:23;;;;;;;54.35;22.00;;;;;;;;;;5033150;28;20072;-93
2023/12/06 06:08:57;;;;;;;51.20;22.20;;;;;;;;;;5030688;28;20462;-92
2023/12/06 06:11:22;;;;;;;49.22;20.67;;;;;;;;;;5031884;28;20024;-90
2023/12/06 06:13:47;;;;;;;54.20;21.27;;;;;;;;;;5034767;28;20025;-93
2023/12/06 06:16:17;;;;;;;51.27;20.60;;;;;;;;;;5034560;28;20030;-92
2023/12/06 06:18:42;;;;;;;45.63;19.43;;;;;;;;;;5037584;28;20022;-92
2023/12/06 06:21:08;;;;;;;46.30;20.87;;;;;;;;;;5035654;28;20306;-92
2023/12/06 06:23:33;;;;;;;49.20;20.90;;;;;;;;;;5014556;28;20049;-93
2023/12/06 06:25:58;;;;;;;44.47;19.37;;;;;;;;;;5021814;28;20475;-93
2023/12/06 06:28:24;;;;;;;49.43;20.90;;;;;;;;;;5036069;28;20028;-93
2023/12/06 06:30:49;;;;;;;55.37;20.97;;;;;;;;;;5036175;28;20018;-92
2023/12/06 06:33:26;;;;;;;48.47;20.13;;;;;;;;;;5037888;28;20358;-93
2023/12/06 06:35:54;;;;;;;43.77;19.23;;;;;;;;;;5038966;28;20029;-92
2023/12/06 06:38:22;;;;;;;47.85;20.48;;;;;;;;;;5022256;28;20029;-92
2023/12/06 06:40:49;;;;;;;46.67;20.80;;;;;;;;;;5035426;28;20427;-93
2023/12/06 06:43:14;;;;;;;53.60;20.50;;;;;;;;;;5035873;28;20140;-93
2023/12/06 06:48:23;;;;;;;54.72;20.10;;;;;;;;;;5037061;28;20103;-93
2023/12/06 06:50:48;;;;;;;49.03;20.03;;;;;;;;;;5036694;28;20014;-91
2023/12/06 06:53:22;;;;;;;43.70;20.43;;;;;;;;;;5036535;28;20021;-92
2023/12/06 06:55:48;;;;;;;48.63;18.75;;;;;;;;;;5031505;28;20029;-92
2023/12/06 06:58:18;;;;;;;42.97;18.92;;;;;;;;;;5033654;28;20051;-90
2023/12/06 07:01:10;;;;;;;47.43;18.80;;;;;;;;;;5033249;28;20147;-92
2023/12/06 07:03:36;;;;;;;40.80;18.27;;;;;;;;;;5029603;28;20055;-90
2023/12/06 07:06:02;;;;;;;47.90;19.42;;;;;;;;;;5033026;28;20483;-90
2023/12/06 07:08:27;;;;;;;50.00;18.40;;;;;;;;;;5033754;28;20381;-91
2023/12/06 07:10:52;;;;;;;46.87;18.77;;;;;;;;;;5033742;28;20022;-92
2023/12/06 07:13:17;;;;;;;47.97;19.67;;;;;;;;;;5035421;28;20488;-92
2023/12/06 07:15:42;;;;;;;45.20;19.23;;;;;;;;;;5034056;28;20025;-90
2023/12/06 07:18:08;;;;;;;47.27;18.97;;;;;;;;;;5033618;28;20017;-89
2023/12/06 07:20:33;;;;;;;44.37;18.20;;;;;;;;;;5033358;28;20381;-90
2023/12/06 07:23:00;;;;;;;43.10;18.40;;;;;;;;;;5032533;28;20049;-89
2023/12/06 07:25:25;;;;;;;41.35;18.60;;;;;;;;;;5032049;28;20013;-93
2023/12/06 07:27:50;;;;;;;47.50;19.63;;;;;;;;;;5033153;28;20028;-92
2023/12/06 07:30:18;;;;;;;46.63;18.37;;;;;;;;;;5031562;28;20104;-90
2023/12/06 07:32:44;;;;;;;43.90;18.98;;;;;;;;;;5029505;28;20051;-89
2023/12/06 07:35:09;;;;;;;45.90;18.83;;;;;;;;;;5032351;28;20444;-89
2023/12/06 07:37:34;;;;;;;46.23;18.27;;;;;;;;;;5031700;28;20010;-89
2023/12/06 07:39:59;;;;;;;45.50;18.40;;;;;;;;;;5032253;28;20060;-90
2023/12/06 07:42:25;;;;;;;37.93;17.93;;;;;;;;;;5033338;28;20040;-89
2023/12/06 07:44:50;;;;;;;41.10;17.23;;;;;;;;;;5033123;28;20022;-90
2023/12/06 07:47:18;;;;;;;36.07;16.93;;;;;;;;;;5028986;28;20107;-89
2023/12/06 07:49:43;;;;;;;40.60;16.23;;;;;;;;;;5018200;28;20020;-88
2023/12/06 07:52:09;;;;;;;38.00;16.37;;;;;;;;;;5032544;28;20018;-90
2023/12/06 07:54:34;;;;;;;35.83;16.90;;;;;;;;;;5017286;28;20350;-89
2023/12/06 07:56:59;;;;;;;39.03;16.70;;;;;;;;;;5040610;28;20036;-89
2023/12/06 07:59:24;;;;;;;35.03;16.63;;;;;;;;;;5034830;28;20021;-90
2023/12/06 08:01:49;;;;;;;39.47;17.10;;;;;;;;;;5015558;28;20056;-90
2023/12/06 08:04:18;;;;;;;39.70;16.50;;;;;;;;;;5016865;28;20029;-90
2023/12/06 08:06:49;;;;;;;42.20;16.88;;;;;;;;;;5096245;23;20049;-91
2023/12/06 08:09:30;;;;;;;38.38;16.65;;;;;;;;;;5034277;28;20018;-90
2023/12/06 08:12:23;;;;;;;39.58;16.27;;;;;;;;;;5012705;28;20038;-91
2023/12/06 08:15:04;;;;;;;35.53;17.25;;;;;;;;;;5011716;28;20029;-89
2023/12/06 08:17:32;;;;;;;38.97;17.10;;;;;;;;;;4998794;28;20021;-90
2023/12/06 08:20:10;;;;;;;42.17;17.63;;;;;;;;;;5013850;28;20716;-88
2023/12/06 08:23:02;;;;;;;48.88;19.33;;;;;;;;;;5010262;28;20052;-90
2023/12/06 08:27:52;;;;;;;47.30;18.10;;;;;;;;;;5063371;22;20052;-90
2023/12/06 08:30:28;;;;;;;57.07;20.17;;;;;;;;;;5035918;28;20045;-88
2023/12/06 08:32:53;;;;;;;50.85;18.42;;;;;;;;;;5054423;28;20024;-89
2023/12/06 08:35:19;;;;;;;57.87;19.90;;;;;;;;;;5023889;28;20041;-87
2023/12/06 08:37:59;;;;;;;53.57;20.80;;;;;;;;;;5038092;28;20354;-88
2023/12/06 08:40:34;;;;;;;54.55;20.23;;;;;;;;;;5047075;28;20033;-90
2023/12/06 08:43:00;;;;;;;60.05;21.00;;;;;;;;;;5038275;28;20029;-88
2023/12/06 08:45:28;;;;;;;54.50;22.20;;;;;;;;;;5037758;28;20021;-88
2023/12/06 08:47:53;;;;;;;62.40;21.60;;;;;;;;;;5031947;28;20380;-88
2023/12/06 08:50:25;;;;;;;57.60;20.57;;;;;;;;;;5034045;28;20287;-88
2023/12/06 08:53:04;;;;;;;56.80;20.77;;;;;;;;;;5012968;28;20020;-88
2023/12/06 08:55:29;;;;;;;57.78;20.58;;;;;;;;;;5028596;28;20116;-87
2023/12/06 08:58:06;;;;;;;51.93;21.20;;;;;;;;;;5043678;28;20051;-87
2023/12/06 09:00:32;;;;;;;51.58;19.88;;;;;;;;;;5029735;28;20431;-88
2023/12/06 09:02:58;;;;;;;56.15;21.02;;;;;;;;;;5013467;28;20040;-90
2023/12/06 09:05:23;;;;;;;58.93;20.60;;;;;;;;;;5030749;28;20025;-89
2023/12/06 09:07:48;;;;;;;51.03;19.33;;;;;;;;;;5041828;28;20025;-86
2023/12/06 09:10:13;;;;;;;45.83;18.83;;;;;;;;;;5035564;28;20044;-87
2023/12/06 09:12:39;;;;;;;49.15;18.33;;;;;;;;;;5014939;28;20579;-87
2023/12/06 09:15:05;;;;;;;52.20;18.90;;;;;;;;;;5034379;28;20100;-87
2023/12/06 09:17:30;;;;;;;50.80;19.73;;;;;;;;;;5036338;28;20025;-87
2023/12/06 09:19:55;;;;;;;48.60;18.53;;;;;;;;;;5030448;28;20025;-87
2023/12/06 09:22:21;;;;;;;46.53;19.50;;;;;;;;;;5047489;28;20090;-87
2023/12/06 09:24:46;;;;;;;49.60;18.90;;;;;;;;;;5022700;28;20021;-87
2023/12/06 09:27:12;;;;;;;57.67;21.00;;;;;;;;;;5012463;28;20377;-87
2023/12/06 09:29:37;;;;;;;54.33;20.53;;;;;;;;;;5011639;28;20087;-87
2023/12/06 09:32:02;;;;;;;52.47;20.77;;;;;;;;;;5044545;28;20381;-87
2023/12/06 09:34:27;;;;;;;53.90;20.08;;;;;;;;;;5035061;28;20033;-87
2023/12/06 09:36:53;;;;;;;55.60;19.73;;;;;;;;;;5041534;28;20025;-86
2023/12/06 09:39:20;;;;;;;55.33;18.30;;;;;;;;;;5051136;28;20151;-87
2023/12/06 09:41:48;;;;;;;58.50;20.13;;;;;;;;;;5017064;28;20040;-87
2023/12/06 09:44:14;;;;;;;56.63;19.60;;;;;;;;;;5029584;28;20298;-87
2023/12/06 09:46:41;;;;;;;57.65;20.40;;;;;;;;;;5026309;28;20021;-87
2023/12/06 09:49:06;;;;;;;52.13;19.33;;;;;;;;;;5055253;28;20027;-87
2023/12/06 09:51:31;;;;;;;53.83;18.67;;;;;;;;;;5044607;28;20480;-87
2023/12/06 09:53:57;;;;;;;58.30;19.23;;;;;;;;;;5039866;28;20029;-89
2023/12/06 09:56:23;;;;;;;56.17;20.20;;;;;;;;;;5038721;28;20293;-88
2023/12/06 09:58:48;;;;;;;49.87;19.60;;;;;;;;;;5028882;28;20048;-87
2023/12/06 10:01:13;;;;;;;53.30;19.77;;;;;;;;;;5052491;28;20057;-87
2023/12/06 10:03:39;;;;;;;48.57;18.90;;;;;;;;;;5050493;28;20056;-87
2023/12/06 10:06:04;;;;;;;42.97;17.70;;;;;;;;;;5039221;28;20099;-87
2023/12/06 10:08:35;;;;;;;49.03;18.13;;;;;;;;;;5036206;28;20287;-87
2023/12/06 10:11:01;;;;;;;50.08;18.95;;;;;;;;;;5045572;28;20032;-88
2023/12/06 10:13:40;;;;;;;44.50;18.73;;;;;;;;;;5033503;28;20049;-88
2023/12/06 10:16:15;;;;;;;45.00;17.90;;;;;;;;;;5048686;28;20283;-87
2023/12/06 10:18:41;;;;;;;47.10;17.13;;;;;;;;;;5015429;28;20025;-87
2023/12/06 10:21:07;;;;;;;49.58;17.85;;;;;;;;;;5039463;28;20039;-87
2023/12/06 10:23:32;;;;;;;46.60;17.77;;;;;;;;;;5036169;28;20017;-88
2023/12/06 10:25:57;;;;;;;48.27;18.77;;;;;;;;;;5046606;28;20017;-88
2023/12/06 10:28:23;;;;;;;45.43;16.67;;;;;;;;;;5035896;28;20033;-87
2023/12/06 10:30:58;;;;;;;41.97;18.02;;;;;;;;;;5036733;28;20075;-88
2023/12/06 10:33:25;;;;;;;42.27;17.67;;;;;;;;;;5227013;22;20083;-88
2023/12/06 10:44:28;;;;;;;46.55;18.30;;;;;;;;;;5054042;28;20052;-88
2023/12/06 10:46:54;;;;;;;46.25;19.48;;;;;;;;;;5017392;28;20461;-88
2023/12/06 10:58:29;;;;;;;42.85;17.40;;;;;;;;;;5031136;28;20029;-88
2023/12/06 11:00:56;;;;;;;35.15;17.58;;;;;;;;;;5031854;28;20036;-88
2023/12/06 11:03:21;;;;;;;45.33;16.60;;;;;;;;;;5043787;28;20098;-88
2023/12/06 11:05:48;;;;;;;36.07;16.53;;;;;;;;;;5051793;28;20612;-88
2023/12/06 11:08:27;;;;;;;39.67;17.33;;;;;;;;;;5052237;28;20166;-90
2023/12/06 11:14:22;;;;;;;39.28;16.42;;;;;;;;;;5032225;28;20032;-88
2023/12/06 11:16:47;;;;;;;39.20;16.00;;;;;;;;;;5032520;28;20052;-88
2023/12/06 11:19:22;;;;;;;40.80;16.73;;;;;;;;;;5031744;28;20030;-88
2023/12/06 11:22:06;;;;;;;34.45;16.05;;;;;;;;;;5043330;28;20114;-88
2023/12/06 11:24:31;;;;;;;28.55;14.32;;;;;;;;;;5050427;28;20445;-88
2023/12/06 11:26:57;;;;;;;25.97;14.47;;;;;;;;;;5050774;28;20059;-88
2023/12/06 11:29:27;;;;;;;28.27;14.17;;;;;;;;;;5050837;28;20033;-88
2023/12/06 11:32:02;;;;;;;31.02;14.18;;;;;;;;;;5051470;28;20039;-88
2023/12/06 11:34:34;;;;;;;27.90;12.70;;;;;;;;;;5049525;28;20060;-87
2023/12/06 11:37:03;;;;;;;29.20;13.18;;;;;;;;;;5046839;28;20031;-88
2023/12/06 11:39:34;;;;;;;23.87;12.40;;;;;;;;;;5037264;28;20075;-85
2023/12/06 11:41:59;;;;;;;23.67;13.27;;;;;;;;;;5039459;28;20303;-87
2023/12/06 11:44:24;;;;;;;29.45;12.57;;;;;;;;;;5040341;28;20080;-86
2023/12/06 11:46:55;;;;;;;23.33;12.33;;;;;;;;;;5038407;28;20024;-89
2023/12/06 11:49:22;;;;;;;32.03;12.73;;;;;;;;;;5049571;28;20412;-87
2023/12/06 11:51:51;;;;;;;26.80;13.43;;;;;;;;;;5062234;28;20324;-87
2023/12/06 11:54:16;;;;;;;27.65;12.65;;;;;;;;;;5043225;28;20029;-87
2023/12/06 11:56:41;;;;;;;35.27;14.13;;;;;;;;;;5041241;28;20025;-87
2023/12/06 11:59:07;;;;;;;31.43;13.23;;;;;;;;;;5044747;28;20033;-87
2023/12/06 12:01:33;;;;;;;29.95;14.38;;;;;;;;;;5036331;28;20064;-87
2023/12/06 12:03:59;;;;;;;28.20;14.03;;;;;;;;;;5044337;28;20095;-87
2023/12/06 12:06:27;;;;;;;29.15;14.13;;;;;;;;;;5043086;28;20120;-86
2023/12/06 12:08:52;;;;;;;25.70;14.18;;;;;;;;;;5042386;28;20453;-86
2023/12/06 12:11:17;;;;;;;28.67;13.73;;;;;;;;;;5032948;28;20014;-87
2023/12/06 12:13:43;;;;;;;25.50;12.60;;;;;;;;;;5038631;28;20017;-87
2023/12/06 12:16:08;;;;;;;29.07;13.93;;;;;;;;;;5042756;28;20429;-87
2023/12/06 12:18:34;;;;;;;29.67;13.32;;;;;;;;;;5034418;28;20024;-87
2023/12/06 12:21:05;;;;;;;22.57;12.03;;;;;;;;;;5047013;28;20056;-87
2023/12/06 12:23:30;;;;;;;29.90;12.02;;;;;;;;;;5044348;28;20025;-87
2023/12/06 12:25:56;;;;;;;20.60;11.73;;;;;;;;;;5050439;28;20017;-88
2023/12/06 12:28:22;;;;;;;22.17;11.20;;;;;;;;;;5036121;28;20052;-87
2023/12/06 12:30:52;;;;;;;22.98;11.02;;;;;;;;;;5043743;28;20380;-87
2023/12/06 12:33:17;;;;;;;22.67;11.45;;;;;;;;;;5032487;28;20116;-87
2023/12/06 12:35:43;;;;;;;27.13;11.53;;;;;;;;;;5028845;28;20108;-87
2023/12/06 12:38:08;;;;;;;21.42;11.88;;;;;;;;;;5047181;28;20041;-87
2023/12/06 12:40:34;;;;;;;19.50;10.93;;;;;;;;;;5047134;28;20473;-88
2023/12/06 12:42:59;;;;;;;23.03;11.53;;;;;;;;;;5049572;28;20053;-87
2023/12/06 12:45:26;;;;;;;23.63;11.70;;;;;;;;;;5049161;28;20059;-87
2023/12/06 12:47:52;;;;;;;21.10;11.02;;;;;;;;;;5050586;28;20458;-87
2023/12/06 12:50:18;;;;;;;17.77;10.30;;;;;;;;;;5049673;28;20013;-87
2023/12/06 12:52:44;;;;;;;25.23;10.45;;;;;;;;;;5051458;28;20017;-89
2023/12/06 12:55:09;;;;;;;24.87;10.53;;;;;;;;;;5050360;28;20074;-90
2023/12/06 12:57:35;;;;;;;16.42;9.57;;;;;;;;;;5052833;28;20082;-91
2023/12/06 13:00:00;;;;;;;22.95;10.55;;;;;;;;;;5051254;28;20169;-90
2023/12/06 13:02:26;;;;;;;19.73;10.33;;;;;;;;;;5069543;28;20115;-88
2023/12/06 13:04:52;;;;;;;19.47;9.93;;;;;;;;;;5035712;28;20025;-88
2023/12/06 13:07:18;;;;;;;25.00;11.13;;;;;;;;;;5059485;28;20031;-87
2023/12/06 13:09:43;;;;;;;17.73;9.80;;;;;;;;;;5064634;28;20290;-88
2023/12/06 13:12:08;;;;;;;18.60;10.37;;;;;;;;;;5065322;28;20017;-90
2023/12/06 13:14:34;;;;;;;19.37;9.90;;;;;;;;;;5052833;28;20028;-88
2023/12/06 13:17:01;;;;;;;19.00;10.07;;;;;;;;;;5058893;28;20020;-88
2023/12/06 13:19:27;;;;;;;16.23;9.10;;;;;;;;;;5044797;28;20023;-88
2023/12/06 13:21:52;;;;;;;18.77;9.93;;;;;;;;;;5051347;28;20012;-89
2023/12/06 13:24:18;;;;;;;19.37;9.47;;;;;;;;;;5050784;28;20326;-88
2023/12/06 13:26:43;;;;;;;22.77;8.53;;;;;;;;;;5056668;28;20029;-87
2023/12/06 13:29:09;;;;;;;18.40;8.53;;;;;;;;;;5061481;28;20029;-88
2023/12/06 13:31:36;;;;;;;17.58;9.48;;;;;;;;;;5044133;28;20052;-88
2023/12/06 13:34:01;;;;;;;17.97;9.67;;;;;;;;;;5068333;28;20051;-90
2023/12/06 13:36:26;;;;;;;17.73;10.10;;;;;;;;;;5067354;28;20060;-90
2023/12/06 13:38:51;;;;;;;25.37;9.93;;;;;;;;;;5058444;28;20066;-90
2023/12/06 13:41:16;;;;;;;10.77;5.93;;;;;;;;;;5070676;28;20032;-88
2023/12/06 13:43:42;;;;;;;6.13;2.60;;;;;;;;;;5069686;28;20051;-89
2023/12/06 13:46:07;;;;;;;3.03;2.27;;;;;;;;;;5071807;28;20758;-88
2023/12/06 13:48:32;;;;;;;3.97;2.27;;;;;;;;;;5052952;28;20061;-88
2023/12/06 13:50:57;;;;;;;3.90;2.00;;;;;;;;;;5056803;28;20024;-87
2023/12/06 13:53:23;;;;;;;4.73;2.00;;;;;;;;;;5058042;28;20031;-87
2023/12/06 13:55:48;;;;;;;4.53;2.47;;;;;;;;;;5049847;28;20103;-88
2023/12/06 13:58:13;;;;;;;5.23;2.50;;;;;;;;;;5055181;28;20035;-88
2023/12/06 14:00:38;;;;;;;4.20;2.13;;;;;;;;;;5053749;28;20021;-82
2023/12/06 14:03:04;;;;;;;4.37;2.60;;;;;;;;;;5045829;28;20033;-83
2023/12/06 14:05:31;;;;;;;3.53;2.57;;;;;;;;;;5052396;28;20473;-85
2023/12/06 14:07:57;;;;;;;4.18;2.42;;;;;;;;;;5049303;28;20070;-82
2023/12/06 14:10:22;;;;;;;5.03;2.70;;;;;;;;;;5050916;28;20029;-78
2023/12/06 14:12:47;;;;;;;6.63;2.70;;;;;;;;;;5053741;28;20074;-82
2023/12/06 14:15:12;;;;;;;5.57;2.92;;;;;;;;;;5054132;28;20388;-85
2023/12/06 14:17:38;;;;;;;3.30;2.50;;;;;;;;;;5048817;28;20060;-85
2023/12/06 14:20:04;;;;;;;4.60;2.40;;;;;;;;;;5048803;28;20052;-84
2023/12/06 14:22:29;;;;;;;4.88;3.30;;;;;;;;;;5054161;28;20036;-85
2023/12/06 14:24:55;;;;;;;4.40;3.60;;;;;;;;;;5061697;28;20017;-85
2023/12/06 14:27:20;;;;;;;7.37;3.80;;;;;;;;;;5069312;28;20019;-86
2023/12/06 14:29:45;;;;;;;6.73;3.53;;;;;;;;;;5068322;28;20020;-85
2023/12/06 14:32:10;;;;;;;6.70;3.50;;;;;;;;;;5053975;28;20028;-86
2023/12/06 14:34:35;;;;;;;6.20;3.37;;;;;;;;;;5051612;28;20494;-86
2023/12/06 14:37:01;;;;;;;8.73;3.90;;;;;;;;;;5070582;28;20298;-85
2023/12/06 14:39:26;;;;;;;4.83;3.80;;;;;;;;;;5056580;28;20009;-85
2023/12/06 14:41:52;;;;;;;6.30;3.40;;;;;;;;;;5052822;28;20039;-87
2023/12/06 14:44:18;;;;;;;6.65;3.90;;;;;;;;;;5054216;28;20166;-86
2023/12/06 14:46:43;;;;;;;6.60;3.73;;;;;;;;;;5054851;28;20567;-86
2023/12/06 14:49:09;;;;;;;6.73;4.10;;;;;;;;;;5063311;28;20040;-87
2023/12/06 14:51:34;;;;;;;4.93;3.90;;;;;;;;;;5068144;28;20020;-87
2023/12/06 14:53:59;;;;;;;5.27;3.70;;;;;;;;;;5064943;28;20483;-86
2023/12/06 14:56:24;;;;;;;4.60;3.40;;;;;;;;;;5070897;28;20021;-86
2023/12/06 14:58:49;;;;;;;8.43;4.43;;;;;;;;;;5050087;28;20094;-85
2023/12/06 15:01:15;;;;;;;9.63;4.67;;;;;;;;;;5069076;28;20461;-85
2023/12/06 15:03:40;;;;;;;7.40;5.17;;;;;;;;;;5041874;28;20484;-84
2023/12/06 15:06:05;;;;;;;9.50;5.70;;;;;;;;;;5053517;28;20075;-85